Time;durP1;ratioP1;P1;durP2;ratioP2;P2;SDS_P1;SDS_P2;PMS_P1;PMS_P2;Temp;Humidity;BMP_temperature;BMP_pressure;BME280_temperature;BME280_humidity;BME280_pressure;Samples;Min_cycle;Max_cycle;Signal;HPM_P1;HPM_P2
2022/08/01 00:01:37;;;;;;;0.70;0.70;;;22.30;99.90;;;;;;5039764;28;20220;-60
2022/08/01 00:04:04;;;;;;;0.90;0.90;;;22.30;99.90;;;;;;5041744;28;20207;-61
2022/08/01 00:06:31;;;;;;;0.73;0.73;;;22.30;99.90;;;;;;5041760;28;20204;-61
2022/08/01 00:08:58;;;;;;;0.70;0.70;;;22.30;99.90;;;;;;5040695;28;20234;-61
2022/08/01 00:11:25;;;;;;;0.70;0.70;;;22.20;99.90;;;;;;5038001;28;20230;-62
2022/08/01 00:13:53;;;;;;;0.70;0.70;;;22.20;99.90;;;;;;5053624;28;20272;-61
2022/08/01 00:16:22;;;;;;;0.70;0.70;;;22.20;99.90;;;;;;5057575;28;20291;-60
2022/08/01 00:18:49;;;;;;;0.63;0.63;;;22.20;99.90;;;;;;5057256;28;20262;-61
2022/08/01 00:21:16;;;;;;;0.80;0.80;;;22.20;99.90;;;;;;5056853;28;20323;-60
2022/08/01 00:23:43;;;;;;;0.52;0.52;;;22.20;99.90;;;;;;5058861;28;20200;-62
2022/08/01 00:26:10;;;;;;;0.90;0.90;;;22.20;99.90;;;;;;5061153;28;20291;-61
2022/08/01 00:28:37;;;;;;;1.00;0.90;;;22.10;99.90;;;;;;5051642;28;20192;-61
2022/08/01 00:31:05;;;;;;;0.70;0.70;;;22.10;99.90;;;;;;5058212;28;20287;-61
2022/08/01 00:33:32;;;;;;;0.63;0.63;;;22.00;99.90;;;;;;5059136;28;20211;-61
2022/08/01 00:35:59;;;;;;;0.70;0.70;;;21.90;99.90;;;;;;5052140;28;20226;-61
2022/08/01 00:38:26;;;;;;;0.80;0.80;;;21.90;99.90;;;;;;5050669;28;20250;-61
2022/08/01 00:40:52;;;;;;;0.88;0.88;;;21.80;99.90;;;;;;5048553;28;20290;-61
2022/08/01 00:43:19;;;;;;;0.70;0.70;;;21.70;99.90;;;;;;5040331;28;20212;-61
2022/08/01 00:45:46;;;;;;;0.80;0.80;;;21.60;99.90;;;;;;5050898;28;20725;-61
2022/08/01 00:48:14;;;;;;;0.52;0.52;;;21.60;99.90;;;;;;5049197;28;20286;-61
2022/08/01 00:50:41;;;;;;;0.60;0.60;;;21.50;99.90;;;;;;5048769;28;20263;-61
2022/08/01 00:53:08;;;;;;;0.70;0.70;;;21.50;99.90;;;;;;5037811;28;20291;-61
2022/08/01 00:55:36;;;;;;;0.80;0.80;;;21.40;99.90;;;;;;5037759;28;20211;-61
2022/08/01 00:58:03;;;;;;;0.80;0.80;;;21.40;99.90;;;;;;5038313;28;20314;-61
2022/08/01 01:00:30;;;;;;;0.70;0.70;;;21.40;99.90;;;;;;5043203;28;20207;-62
2022/08/01 01:02:57;;;;;;;0.60;0.60;;;21.20;99.90;;;;;;5038696;28;20279;-60
2022/08/01 01:05:25;;;;;;;0.60;0.60;;;21.30;99.90;;;;;;5052676;28;20200;-62
2022/08/01 01:07:57;;;;;;;0.75;0.75;;;21.20;99.90;;;;;;5059353;28;20277;-61
2022/08/01 01:10:31;;;;;;;0.75;0.70;;;21.20;99.90;;;;;;5048557;28;20196;-61
2022/08/01 01:13:05;;;;;;;0.60;0.60;;;21.20;99.90;;;;;;5066232;28;20291;-61
2022/08/01 01:15:39;;;;;;;0.73;0.73;;;21.20;99.90;;;;;;5051103;28;20286;-61
2022/08/01 01:18:10;;;;;;;0.68;0.68;;;21.10;99.90;;;;;;5056042;28;20261;-61
2022/08/01 01:20:43;;;;;;;0.73;0.73;;;21.20;99.90;;;;;;5053322;28;20291;-62
2022/08/01 01:23:40;;;;;;;0.80;0.80;;;21.10;99.90;;;;;;5062772;28;20207;-62
2022/08/01 01:26:26;;;;;;;1.42;0.80;;;21.20;99.90;;;;;;5051572;28;20239;-61
2022/08/01 01:29:04;;;;;;;0.75;0.75;;;21.10;99.90;;;;;;5061044;28;20725;-60
2022/08/01 01:31:38;;;;;;;0.68;0.68;;;21.10;99.90;;;;;;5062768;28;20238;-61
2022/08/01 01:34:07;;;;;;;0.70;0.70;;;21.00;99.90;;;;;;5061751;28;20286;-60
2022/08/01 01:36:34;;;;;;;0.80;0.80;;;21.00;99.90;;;;;;5062424;28;20726;-60
2022/08/01 01:39:02;;;;;;;0.60;0.60;;;21.00;99.90;;;;;;5059348;28;20223;-61
2022/08/01 01:41:31;;;;;;;0.82;0.82;;;21.00;99.90;;;;;;5068058;28;20799;-62
2022/08/01 01:44:01;;;;;;;0.80;0.80;;;21.00;99.90;;;;;;5063241;28;20302;-62
2022/08/01 01:46:30;;;;;;;0.70;0.70;;;21.00;99.90;;;;;;5068787;28;20199;-61
2022/08/01 01:48:58;;;;;;;0.73;0.73;;;21.00;99.90;;;;;;5063462;28;20218;-61
2022/08/01 01:51:28;;;;;;;0.60;0.60;;;20.90;99.90;;;;;;5069089;28;20595;-62
2022/08/01 01:53:57;;;;;;;0.70;0.70;;;20.90;99.90;;;;;;5063299;28;20207;-62
2022/08/01 01:56:25;;;;;;;0.82;0.80;;;21.00;99.90;;;;;;5062427;28;20208;-60
2022/08/01 01:58:58;;;;;;;0.80;0.80;;;20.90;99.90;;;;;;5069734;28;20227;-61
2022/08/01 02:01:30;;;;;;;0.75;0.75;;;20.90;99.90;;;;;;5064204;28;20216;-60
2022/08/01 02:03:58;;;;;;;0.57;0.57;;;20.80;99.90;;;;;;5066122;28;20202;-60
2022/08/01 02:06:27;;;;;;;0.77;0.77;;;20.70;99.90;;;;;;5062747;28;20196;-60
2022/08/01 02:08:55;;;;;;;0.88;0.88;;;20.90;99.90;;;;;;5065131;28;20210;-62
2022/08/01 02:11:22;;;;;;;0.85;0.85;;;20.90;99.90;;;;;;5065978;28;20259;-61
2022/08/01 02:13:58;;;;;;;0.88;0.88;;;20.90;99.90;;;;;;5063969;28;20200;-61
2022/08/01 02:16:29;;;;;;;0.80;0.80;;;20.90;99.90;;;;;;5066499;28;20219;-60
2022/08/01 02:18:56;;;;;;;0.70;0.70;;;20.90;99.90;;;;;;5064932;28;20237;-61
2022/08/01 02:21:28;;;;;;;0.80;0.80;;;20.80;99.90;;;;;;5067069;28;20723;-62
2022/08/01 02:24:01;;;;;;;0.82;0.82;;;20.70;99.90;;;;;;5064793;28;20207;-62
2022/08/01 02:26:29;;;;;;;0.80;0.80;;;20.70;99.90;;;;;;5065090;28;20199;-61
2022/08/01 02:29:00;;;;;;;0.80;0.80;;;20.70;99.90;;;;;;5065179;28;20206;-61
2022/08/01 02:31:33;;;;;;;0.70;0.70;;;20.70;99.90;;;;;;5065608;28;20230;-61
2022/08/01 02:34:03;;;;;;;0.77;0.75;;;20.60;99.90;;;;;;5065090;28;20665;-60
2022/08/01 02:36:32;;;;;;;0.70;0.70;;;20.60;99.90;;;;;;5066126;28;20199;-61
2022/08/01 02:39:01;;;;;;;0.73;0.73;;;20.60;99.90;;;;;;5065370;28;20776;-62
2022/08/01 02:41:29;;;;;;;0.90;0.90;;;20.50;99.90;;;;;;5066172;28;20226;-62
2022/08/01 02:44:00;;;;;;;0.60;0.60;;;20.50;99.90;;;;;;5063733;28;20318;-60
2022/08/01 02:46:34;;;;;;;0.80;0.80;;;20.50;99.90;;;;;;5064743;28;20192;-61
2022/08/01 02:49:04;;;;;;;0.57;0.57;;;20.50;99.90;;;;;;5064357;28;20206;-60
2022/08/01 02:51:33;;;;;;;0.70;0.70;;;20.40;99.90;;;;;;5065109;28;20425;-62
2022/08/01 02:54:02;;;;;;;0.80;0.80;;;20.30;99.90;;;;;;5067902;28;20199;-62
2022/08/01 02:56:35;;;;;;;0.77;0.77;;;20.20;99.90;;;;;;5058330;28;20226;-61
2022/08/01 02:59:05;;;;;;;0.60;0.60;;;20.20;99.90;;;;;;5064464;28;20598;-61
2022/08/01 03:01:35;;;;;;;0.70;0.70;;;20.20;99.90;;;;;;5064689;28;20270;-62
2022/08/01 03:04:04;;;;;;;0.80;0.80;;;20.10;99.90;;;;;;5061816;28;20204;-62
2022/08/01 03:06:32;;;;;;;0.80;0.80;;;20.20;99.90;;;;;;5061886;28;20204;-61
2022/08/01 03:09:00;;;;;;;0.77;0.77;;;20.20;99.90;;;;;;5057292;28;20291;-61
2022/08/01 03:11:30;;;;;;;0.80;0.80;;;20.20;99.90;;;;;;5065774;28;20224;-63
2022/08/01 03:13:59;;;;;;;0.90;0.90;;;20.20;99.90;;;;;;5066994;28;20213;-61
2022/08/01 03:16:27;;;;;;;0.95;0.95;;;20.10;99.90;;;;;;5067649;28;20579;-61
2022/08/01 03:18:58;;;;;;;0.70;0.70;;;20.10;99.90;;;;;;5066124;28;20251;-60
2022/08/01 03:21:26;;;;;;;0.80;0.80;;;20.10;99.90;;;;;;5067762;28;20222;-61
2022/08/01 03:23:56;;;;;;;0.88;0.88;;;20.00;99.90;;;;;;5063678;28;20204;-60
2022/08/01 03:26:26;;;;;;;0.80;0.80;;;20.00;99.90;;;;;;5064774;28;20230;-60
2022/08/01 03:28:59;;;;;;;0.80;0.80;;;20.00;99.90;;;;;;5062745;28;20210;-61
2022/08/01 03:31:27;;;;;;;0.77;0.77;;;20.00;99.90;;;;;;5056382;28;20302;-61
2022/08/01 03:33:55;;;;;;;0.85;0.85;;;19.90;99.90;;;;;;5063518;28;20684;-60
2022/08/01 03:36:26;;;;;;;1.00;1.00;;;19.90;99.90;;;;;;5049306;28;20911;-61
2022/08/01 03:38:57;;;;;;;0.80;0.80;;;19.90;99.90;;;;;;5066435;28;20212;-63
2022/08/01 03:41:28;;;;;;;0.80;0.80;;;19.90;99.90;;;;;;5056581;28;20740;-62
2022/08/01 03:44:01;;;;;;;0.80;0.80;;;20.00;99.90;;;;;;5056652;28;20204;-61
2022/08/01 03:46:33;;;;;;;0.77;0.77;;;20.00;99.90;;;;;;5058980;28;20211;-62
2022/08/01 03:49:08;;;;;;;0.80;0.80;;;20.00;99.90;;;;;;5064262;28;20241;-62
2022/08/01 03:51:36;;;;;;;0.90;0.90;;;20.00;99.90;;;;;;5060430;28;20227;-60
2022/08/01 03:54:05;;;;;;;0.85;0.85;;;19.90;99.90;;;;;;5054439;28;20668;-61
2022/08/01 03:56:33;;;;;;;0.65;0.65;;;19.90;99.90;;;;;;5060559;28;20299;-61
2022/08/01 03:59:00;;;;;;;0.82;0.82;;;19.90;99.90;;;;;;5067255;28;20251;-62
2022/08/01 04:01:29;;;;;;;0.77;0.77;;;19.90;99.90;;;;;;5071704;28;20283;-61
2022/08/01 04:03:56;;;;;;;0.90;0.90;;;19.90;99.90;;;;;;5075669;28;20207;-61
2022/08/01 04:06:24;;;;;;;1.17;0.80;;;19.80;99.90;;;;;;5056603;28;20210;-60
2022/08/01 04:08:56;;;;;;;0.85;0.85;;;19.80;99.90;;;;;;5065925;28;20202;-61
2022/08/01 04:11:24;;;;;;;0.80;0.80;;;19.80;99.90;;;;;;5063857;28;20232;-61
2022/08/01 04:13:52;;;;;;;0.93;0.93;;;19.80;99.90;;;;;;5064788;28;20212;-62
2022/08/01 04:16:19;;;;;;;0.73;0.73;;;19.70;99.90;;;;;;5065728;28;20223;-62
2022/08/01 04:18:46;;;;;;;0.80;0.80;;;19.70;99.90;;;;;;5062379;28;20289;-62
2022/08/01 04:21:14;;;;;;;0.90;0.90;;;19.70;99.90;;;;;;5068594;28;20218;-61
2022/08/01 04:23:45;;;;;;;0.80;0.80;;;19.70;99.90;;;;;;5055307;28;20204;-61
2022/08/01 04:26:14;;;;;;;1.00;1.00;;;19.70;99.90;;;;;;5066520;28;20574;-61
2022/08/01 04:28:43;;;;;;;1.10;1.00;;;19.80;99.90;;;;;;5061198;28;20218;-60
2022/08/01 04:31:11;;;;;;;0.82;0.82;;;19.80;99.90;;;;;;5065349;28;20361;-61
2022/08/01 04:33:41;;;;;;;0.80;0.80;;;19.90;99.90;;;;;;5062126;28;20224;-61
2022/08/01 04:36:11;;;;;;;0.95;0.95;;;19.90;99.90;;;;;;5051023;28;20204;-62
2022/08/01 04:38:39;;;;;;;0.80;0.80;;;19.90;99.90;;;;;;5063988;28;20208;-60
2022/08/01 04:41:10;;;;;;;1.00;1.00;;;20.00;99.90;;;;;;5056779;28;20315;-61
2022/08/01 04:43:38;;;;;;;1.00;1.00;;;20.00;99.90;;;;;;5061413;28;20290;-61
2022/08/01 04:46:06;;;;;;;1.00;1.00;;;20.10;99.90;;;;;;5057338;28;20314;-61
2022/08/01 04:48:37;;;;;;;1.20;1.20;;;20.10;99.90;;;;;;5063143;28;20205;-61
2022/08/01 04:51:04;;;;;;;0.93;0.93;;;20.10;99.90;;;;;;5053763;28;20730;-61
2022/08/01 04:53:32;;;;;;;0.80;0.80;;;20.10;99.90;;;;;;5061727;28;20199;-61
2022/08/01 04:55:59;;;;;;;0.90;0.90;;;20.10;99.90;;;;;;5063677;28;20594;-61
2022/08/01 04:58:27;;;;;;;0.93;0.93;;;20.10;99.90;;;;;;5068584;28;20225;-61
2022/08/01 05:00:54;;;;;;;0.90;0.90;;;20.20;99.90;;;;;;5062297;28;20227;-60
2022/08/01 05:03:21;;;;;;;0.95;0.95;;;20.10;99.90;;;;;;5065709;28;20196;-61
2022/08/01 05:05:48;;;;;;;0.93;0.93;;;20.20;99.90;;;;;;5062320;28;20232;-62
2022/08/01 05:08:16;;;;;;;0.90;0.90;;;20.10;99.90;;;;;;5053117;22;20232;-61
2022/08/01 05:10:43;;;;;;;1.55;1.05;;;20.10;99.90;;;;;;5042383;28;20207;-61
2022/08/01 05:13:10;;;;;;;0.90;0.90;;;20.10;99.90;;;;;;5052342;28;20293;-61
2022/08/01 05:15:38;;;;;;;0.98;0.90;;;20.20;99.90;;;;;;5050441;28;20219;-61
2022/08/01 05:18:06;;;;;;;1.00;1.00;;;20.30;99.90;;;;;;5055239;28;20306;-61
2022/08/01 05:20:33;;;;;;;0.90;0.90;;;20.30;99.90;;;;;;5050656;28;20200;-61
2022/08/01 05:23:00;;;;;;;0.90;0.90;;;20.50;99.90;;;;;;5053137;28;20566;-61
2022/08/01 05:25:28;;;;;;;0.75;0.75;;;20.80;99.90;;;;;;5055481;28;20287;-61
2022/08/01 05:27:54;;;;;;;0.90;0.90;;;21.00;99.90;;;;;;5052284;28;20224;-60
2022/08/01 05:30:21;;;;;;;2.55;1.10;;;21.10;99.90;;;;;;5054237;28;20279;-60
2022/08/01 05:32:49;;;;;;;0.90;0.90;;;21.30;99.90;;;;;;5045120;28;20291;-60
2022/08/01 05:35:16;;;;;;;0.90;0.90;;;21.50;99.90;;;;;;5039545;28;20674;-60
2022/08/01 05:37:43;;;;;;;1.00;1.00;;;21.60;99.90;;;;;;5045336;28;20322;-62
2022/08/01 05:40:11;;;;;;;0.90;0.90;;;21.70;99.90;;;;;;5032729;28;20216;-61
2022/08/01 05:42:38;;;;;;;0.90;0.90;;;21.80;99.90;;;;;;5028704;28;20211;-61
2022/08/01 05:45:06;;;;;;;1.13;1.02;;;21.80;99.90;;;;;;5029413;28;20753;-61
2022/08/01 05:47:33;;;;;;;1.10;0.98;;;21.90;99.90;;;;;;5024204;28;20737;-61
2022/08/01 05:50:01;;;;;;;1.20;1.10;;;22.00;99.90;;;;;;5031792;28;20254;-61
2022/08/01 05:52:28;;;;;;;0.80;0.80;;;22.10;99.90;;;;;;5039214;28;20283;-61
2022/08/01 05:54:55;;;;;;;0.95;0.95;;;22.10;99.90;;;;;;5032621;28;20201;-61
2022/08/01 05:57:22;;;;;;;1.17;1.00;;;22.30;99.90;;;;;;5034816;28;20365;-61
2022/08/01 05:59:49;;;;;;;1.15;1.10;;;22.40;99.90;;;;;;5037194;28;20758;-61
2022/08/01 06:02:16;;;;;;;1.70;1.10;;;22.40;99.90;;;;;;5037929;28;20694;-61
2022/08/01 06:04:43;;;;;;;0.80;0.80;;;22.50;99.90;;;;;;5034643;28;20232;-61
2022/08/01 06:07:11;;;;;;;1.00;1.00;;;22.60;99.90;;;;;;5031433;28;20307;-61
2022/08/01 06:09:38;;;;;;;0.90;0.90;;;22.70;99.90;;;;;;5036420;28;20261;-61
2022/08/01 06:12:06;;;;;;;0.90;0.90;;;22.80;99.90;;;;;;5038549;28;20292;-61
2022/08/01 06:14:33;;;;;;;1.08;1.00;;;22.90;99.90;;;;;;5034402;28;20205;-60
2022/08/01 06:17:00;;;;;;;1.30;1.00;;;23.10;99.90;;;;;;5033598;28;20259;-61
2022/08/01 06:19:27;;;;;;;0.85;0.85;;;23.00;99.90;;;;;;5034321;28;20308;-60
2022/08/01 06:21:53;;;;;;;0.90;0.90;;;23.10;99.90;;;;;;5034256;28;20212;-63
2022/08/01 06:24:23;;;;;;;1.10;1.10;;;23.30;99.90;;;;;;5033386;28;20239;-61
2022/08/01 06:26:49;;;;;;;1.00;1.00;;;23.40;99.90;;;;;;5034585;28;20568;-60
2022/08/01 06:29:16;;;;;;;1.08;1.08;;;23.60;99.90;;;;;;5034826;28;20609;-61
2022/08/01 06:31:43;;;;;;;0.93;0.93;;;23.70;99.90;;;;;;5033636;28;20291;-61
2022/08/01 06:34:10;;;;;;;0.70;0.70;;;23.80;99.90;;;;;;5034405;28;20292;-61
2022/08/01 06:36:37;;;;;;;0.75;0.75;;;24.00;99.90;;;;;;5034102;28;20256;-63
2022/08/01 06:39:04;;;;;;;0.77;0.77;;;24.20;99.90;;;;;;5031488;28;20765;-61
2022/08/01 06:41:32;;;;;;;0.80;0.80;;;24.30;99.90;;;;;;5036290;28;20197;-60
2022/08/01 06:44:02;;;;;;;0.82;0.82;;;24.50;99.90;;;;;;5035335;28;20299;-60
2022/08/01 06:46:29;;;;;;;0.90;0.90;;;24.60;99.90;;;;;;5034892;28;20235;-63
2022/08/01 06:48:55;;;;;;;1.00;1.00;;;24.70;99.90;;;;;;5034514;28;20204;-61
2022/08/01 06:51:22;;;;;;;0.90;0.90;;;24.80;99.90;;;;;;5034080;28;20405;-63
2022/08/01 06:53:49;;;;;;;0.90;0.90;;;24.90;99.90;;;;;;5035583;28;20236;-62
2022/08/01 06:56:16;;;;;;;1.27;1.02;;;25.00;99.90;;;;;;5046758;28;20258;-62
2022/08/01 06:58:44;;;;;;;0.90;0.90;;;25.20;99.90;;;;;;5042931;28;20235;-63
2022/08/01 07:01:11;;;;;;;0.90;0.90;;;25.30;99.90;;;;;;5042392;28;20205;-63
2022/08/01 07:03:38;;;;;;;0.90;0.90;;;25.50;99.90;;;;;;5042952;28;20228;-61
2022/08/01 07:06:05;;;;;;;0.80;0.80;;;25.70;99.90;;;;;;5035949;28;20280;-62
2022/08/01 07:08:32;;;;;;;0.70;0.70;;;25.80;99.90;;;;;;5040691;28;20288;-61
2022/08/01 07:11:00;;;;;;;0.75;0.75;;;25.80;99.90;;;;;;5040633;28;20232;-60
2022/08/01 07:13:27;;;;;;;0.70;0.70;;;25.80;99.90;;;;;;5032277;28;20227;-61
2022/08/01 07:15:55;;;;;;;0.80;0.80;;;25.90;99.90;;;;;;5027883;28;20615;-61
2022/08/01 07:18:23;;;;;;;0.70;0.70;;;26.00;99.90;;;;;;5028149;28;20267;-61
2022/08/01 07:20:50;;;;;;;1.20;0.80;;;26.00;99.90;;;;;;5033239;28;20748;-62
2022/08/01 07:23:17;;;;;;;0.70;0.70;;;26.10;99.90;;;;;;5033162;28;20291;-61
2022/08/01 07:25:44;;;;;;;0.68;0.68;;;26.20;99.90;;;;;;5033296;28;20296;-61
2022/08/01 07:28:11;;;;;;;0.68;0.68;;;26.20;99.90;;;;;;5033452;28;20221;-61
2022/08/01 07:30:37;;;;;;;0.70;0.70;;;26.30;99.90;;;;;;5033228;28;20292;-61
2022/08/01 07:33:06;;;;;;;0.70;0.70;;;26.30;99.90;;;;;;5035656;28;20288;-61
2022/08/01 07:35:33;;;;;;;1.10;0.90;;;26.40;99.90;;;;;;5032518;28;20291;-62
2022/08/01 07:37:59;;;;;;;0.70;0.70;;;26.50;99.90;;;;;;5032889;28;20805;-61
2022/08/01 07:40:26;;;;;;;0.70;0.70;;;26.40;99.90;;;;;;5032825;28;20244;-61
2022/08/01 07:42:53;;;;;;;1.05;1.05;;;26.40;99.90;;;;;;5032916;28;20303;-61
2022/08/01 07:45:20;;;;;;;0.73;0.73;;;26.60;99.90;;;;;;5034079;28;20207;-61
2022/08/01 07:47:49;;;;;;;0.60;0.60;;;26.80;99.90;;;;;;5035118;28;20311;-61
2022/08/01 07:50:17;;;;;;;0.60;0.60;;;26.80;99.90;;;;;;5033738;28;20193;-62
2022/08/01 07:52:44;;;;;;;0.70;0.70;;;26.90;99.90;;;;;;5033084;28;20291;-61
2022/08/01 07:55:13;;;;;;;0.63;0.63;;;26.70;99.90;;;;;;5032638;28;20588;-62
2022/08/01 07:57:40;;;;;;;0.90;0.90;;;26.60;99.90;;;;;;5034915;28;20660;-61
2022/08/01 08:00:09;;;;;;;0.70;0.70;;;26.60;99.90;;;;;;5031801;28;20216;-61
2022/08/01 08:02:36;;;;;;;0.73;0.73;;;26.70;99.90;;;;;;5034688;28;20243;-61
2022/08/01 08:05:03;;;;;;;1.20;0.77;;;26.70;99.90;;;;;;5024977;28;20204;-61
2022/08/01 08:07:32;;;;;;;1.23;1.00;;;26.50;99.90;;;;;;5030850;28;20699;-61
2022/08/01 08:09:59;;;;;;;0.85;0.85;;;26.50;99.90;;;;;;5033396;28;20201;-61
2022/08/01 08:12:26;;;;;;;0.80;0.80;;;26.60;99.90;;;;;;5032750;28;20288;-61
2022/08/01 08:14:53;;;;;;;0.90;0.90;;;26.70;99.90;;;;;;5031148;28;20205;-62
2022/08/01 08:17:19;;;;;;;0.88;0.88;;;26.70;99.90;;;;;;5034734;28;20311;-61
2022/08/01 08:19:47;;;;;;;0.70;0.70;;;26.70;99.90;;;;;;5025236;28;20322;-61
2022/08/01 08:22:14;;;;;;;0.90;0.90;;;27.00;99.90;;;;;;5026571;28;20205;-61
2022/08/01 08:24:42;;;;;;;0.90;0.90;;;27.20;99.90;;;;;;5028097;28;20209;-62
2022/08/01 08:27:09;;;;;;;0.70;0.70;;;27.40;99.90;;;;;;5028361;28;20263;-61
2022/08/01 08:29:36;;;;;;;0.80;0.80;;;27.40;99.90;;;;;;5027878;28;20542;-61
2022/08/01 08:32:03;;;;;;;0.80;0.80;;;27.40;99.90;;;;;;5030723;28;20204;-61
2022/08/01 08:34:30;;;;;;;0.90;0.90;;;27.50;99.90;;;;;;5030490;28;20568;-61
2022/08/01 08:36:58;;;;;;;0.80;0.80;;;27.70;99.90;;;;;;5031855;28;20256;-62
2022/08/01 08:39:25;;;;;;;0.90;0.90;;;27.80;99.90;;;;;;5031031;28;20213;-62
2022/08/01 08:41:53;;;;;;;0.90;0.90;;;27.90;99.90;;;;;;5032385;28;20632;-61
2022/08/01 08:44:20;;;;;;;0.85;0.85;;;28.00;99.90;;;;;;5032566;28;20205;-61
2022/08/01 08:46:50;;;;;;;1.23;1.00;;;28.00;99.90;;;;;;5032930;28;20469;-61
2022/08/01 08:49:20;;;;;;;0.80;0.80;;;28.10;99.90;;;;;;5031354;28;20205;-62
2022/08/01 08:51:50;;;;;;;1.00;1.00;;;28.20;99.90;;;;;;5033823;28;20209;-61
2022/08/01 08:54:20;;;;;;;0.70;0.70;;;28.10;99.90;;;;;;5035248;28;20647;-61
2022/08/01 08:56:48;;;;;;;0.80;0.80;;;28.20;99.90;;;;;;5029409;28;20359;-62
2022/08/01 08:59:16;;;;;;;0.77;0.77;;;28.40;99.90;;;;;;5030419;28;20295;-61
2022/08/01 09:01:44;;;;;;;1.05;0.90;;;28.40;99.90;;;;;;5033955;28;20205;-61
2022/08/01 09:04:12;;;;;;;0.70;0.70;;;28.60;99.90;;;;;;5036432;28;20259;-61
2022/08/01 09:06:40;;;;;;;0.90;0.90;;;28.70;99.90;;;;;;5030714;28;20282;-61
2022/08/01 09:09:08;;;;;;;0.75;0.75;;;28.60;99.90;;;;;;5034853;28;20201;-61
2022/08/01 09:11:36;;;;;;;0.90;0.90;;;28.70;99.90;;;;;;5030623;28;20197;-61
2022/08/01 09:14:05;;;;;;;1.00;1.00;;;28.60;99.90;;;;;;5030837;28;20201;-61
2022/08/01 09:16:35;;;;;;;0.77;0.77;;;28.70;99.90;;;;;;5034730;28;20204;-61
2022/08/01 09:19:10;;;;;;;1.00;1.00;;;28.80;99.90;;;;;;5033921;28;20555;-61
2022/08/01 09:21:37;;;;;;;0.90;0.90;;;29.00;99.90;;;;;;5033774;28;20212;-62
2022/08/01 09:24:14;;;;;;;1.17;1.08;;;29.20;99.90;;;;;;5031375;28;20291;-63
2022/08/01 09:26:41;;;;;;;1.00;1.00;;;29.40;99.90;;;;;;5031027;28;20285;-61
2022/08/01 09:29:17;;;;;;;0.95;0.95;;;29.50;99.90;;;;;;5033628;28;20209;-62
2022/08/01 09:31:47;;;;;;;1.10;1.10;;;29.50;99.90;;;;;;5028642;28;20209;-63
2022/08/01 09:34:15;;;;;;;1.00;1.00;;;29.70;99.90;;;;;;5028328;28;20300;-63
2022/08/01 09:36:51;;;;;;;1.02;1.02;;;29.70;99.90;;;;;;5028225;28;20311;-61
2022/08/01 09:39:19;;;;;;;1.00;1.00;;;29.60;99.90;;;;;;5030392;28;20277;-61
2022/08/01 09:41:47;;;;;;;1.00;1.00;;;29.60;99.90;;;;;;5028516;28;20636;-61
2022/08/01 09:44:14;;;;;;;1.00;1.00;;;29.60;99.90;;;;;;5029581;28;20632;-61
2022/08/01 09:46:53;;;;;;;0.90;0.90;;;29.80;99.90;;;;;;5029483;28;20225;-62
2022/08/01 09:49:31;;;;;;;0.90;0.90;;;30.10;99.90;;;;;;5030119;28;20576;-62
2022/08/01 09:51:59;;;;;;;1.00;1.00;;;30.20;99.90;;;;;;5028371;28;20248;-62
2022/08/01 09:54:31;;;;;;;0.90;0.90;;;30.20;99.90;;;;;;5034677;28;20559;-62
2022/08/01 09:57:18;;;;;;;1.23;0.98;;;30.20;99.90;;;;;;5034005;28;20231;-62
2022/08/01 09:59:47;;;;;;;1.00;1.00;;;30.20;99.90;;;;;;5032898;28;20299;-62
2022/08/01 10:02:29;;;;;;;1.00;1.00;;;30.20;99.90;;;;;;5039171;28;20206;-64
2022/08/01 10:04:56;;;;;;;1.25;1.10;;;29.70;99.90;;;;;;5035034;28;20254;-64
2022/08/01 10:07:23;;;;;;;0.90;0.90;;;29.60;99.90;;;;;;5036312;28;20228;-61
2022/08/01 10:09:50;;;;;;;1.23;1.15;;;29.80;99.90;;;;;;5033948;28;20223;-62
2022/08/01 10:12:19;;;;;;;1.00;1.00;;;30.20;99.90;;;;;;5034446;28;20287;-61
2022/08/01 10:14:50;;;;;;;1.00;1.00;;;30.50;99.90;;;;;;5037998;28;20235;-64
2022/08/01 10:17:20;;;;;;;0.95;0.93;;;30.70;99.90;;;;;;5033396;28;20223;-62
2022/08/01 10:19:50;;;;;;;0.98;0.98;;;30.10;99.90;;;;;;5036378;28;20724;-64
2022/08/01 10:22:19;;;;;;;0.98;0.98;;;30.10;99.90;;;;;;5030381;28;20219;-63
2022/08/01 10:24:48;;;;;;;1.10;1.08;;;30.10;99.90;;;;;;5033038;28;20295;-63
2022/08/01 10:27:18;;;;;;;0.80;0.80;;;29.90;99.90;;;;;;5030038;28;20304;-62
2022/08/01 10:29:50;;;;;;;0.90;0.90;;;29.80;99.90;;;;;;5032412;28;20713;-62
2022/08/01 10:32:19;;;;;;;0.95;0.95;;;29.70;99.90;;;;;;5037183;28;20201;-62
2022/08/01 10:34:47;;;;;;;0.80;0.80;;;29.70;99.90;;;;;;5034135;28;20211;-62
2022/08/01 10:37:14;;;;;;;1.00;1.00;;;30.00;99.90;;;;;;5033750;28;20311;-62
2022/08/01 10:39:41;;;;;;;0.80;0.80;;;30.20;99.90;;;;;;5036364;28;20221;-62
2022/08/01 10:42:11;;;;;;;0.90;0.90;;;30.30;99.90;;;;;;5038383;28;20259;-63
2022/08/01 10:44:39;;;;;;;1.02;1.02;;;30.10;99.90;;;;;;5034566;28;20232;-63
2022/08/01 10:47:11;;;;;;;0.90;0.90;;;30.20;99.90;;;;;;5033601;28;20299;-64
2022/08/01 10:49:45;;;;;;;0.80;0.80;;;30.60;99.90;;;;;;5036097;28;20732;-64
2022/08/01 10:52:16;;;;;;;2.15;1.10;;;30.90;99.90;;;;;;5031187;28;20624;-64
2022/08/01 10:54:43;;;;;;;1.10;1.10;;;31.10;99.90;;;;;;5034956;28;20204;-64
2022/08/01 10:57:10;;;;;;;0.90;0.90;;;31.10;99.90;;;;;;5034582;28;20220;-63
2022/08/01 10:59:48;;;;;;;1.00;1.00;;;31.10;99.90;;;;;;5035607;28;20208;-63
2022/08/01 11:02:28;;;;;;;0.95;0.95;;;31.00;99.90;;;;;;5036751;28;20259;-63
2022/08/01 11:05:00;;;;;;;0.80;0.80;;;30.80;99.90;;;;;;5035297;28;20201;-64
2022/08/01 11:07:45;;;;;;;0.90;0.90;;;31.00;99.90;;;;;;5058696;22;20230;-68
2022/08/01 11:10:28;;;;;;;0.90;0.90;;;31.20;99.90;;;;;;5050469;28;20270;-67
2022/08/01 11:12:55;;;;;;;0.85;0.85;;;31.10;99.90;;;;;;5049957;28;20758;-67
2022/08/01 11:15:25;;;;;;;0.85;0.85;;;31.00;99.90;;;;;;5054012;28;20212;-66
2022/08/01 11:17:55;;;;;;;0.80;0.80;;;30.80;99.90;;;;;;5059745;28;20232;-67
2022/08/01 11:20:24;;;;;;;0.90;0.90;;;30.60;99.90;;;;;;5061367;28;20216;-67
2022/08/01 11:23:27;;;;;;;0.90;0.90;;;30.50;99.90;;;;;;5054464;28;20238;-67
2022/08/01 11:26:12;;;;;;;0.90;0.90;;;30.50;99.90;;;;;;5049885;28;20210;-67
2022/08/01 11:28:41;;;;;;;0.88;0.88;;;30.90;99.90;;;;;;5054935;28;20573;-68
2022/08/01 11:31:27;;;;;;;0.88;0.88;;;30.70;99.90;;;;;;5054572;28;20242;-66
2022/08/01 11:33:54;;;;;;;0.90;0.90;;;30.40;99.90;;;;;;5055066;28;20208;-67
2022/08/01 11:36:23;;;;;;;0.90;0.90;;;30.60;99.90;;;;;;5054112;28;20204;-67
2022/08/01 11:39:11;;;;;;;1.00;1.00;;;30.90;99.90;;;;;;5056913;28;20215;-67
2022/08/01 11:41:39;;;;;;;0.90;0.90;;;30.90;99.90;;;;;;5054520;28;20690;-67
2022/08/01 11:44:07;;;;;;;1.30;0.80;;;31.20;99.90;;;;;;5057213;28;20607;-67
2022/08/01 11:46:51;;;;;;;1.10;1.10;;;31.60;99.90;;;;;;5060514;28;20203;-67
2022/08/01 11:49:32;;;;;;;0.80;0.80;;;31.60;99.90;;;;;;5055259;28;20195;-67
2022/08/01 11:52:05;;;;;;;0.77;0.77;;;31.30;99.90;;;;;;5053724;28;20202;-66
2022/08/01 11:54:35;;;;;;;0.82;0.82;;;30.80;99.90;;;;;;5062665;28;20274;-67
2022/08/01 11:57:03;;;;;;;0.82;0.82;;;30.40;99.90;;;;;;5061592;28;20710;-65
2022/08/01 11:59:37;;;;;;;2.33;0.90;;;30.20;99.90;;;;;;5056232;28;20292;-67
2022/08/01 12:02:04;;;;;;;1.58;1.20;;;30.10;99.90;;;;;;5060423;28;20230;-66
2022/08/01 12:04:46;;;;;;;1.00;1.00;;;30.10;99.90;;;;;;5057399;28;20208;-67
2022/08/01 12:07:15;;;;;;;0.93;0.93;;;30.10;99.90;;;;;;5050923;28;20314;-66
2022/08/01 12:09:42;;;;;;;0.90;0.90;;;30.00;99.90;;;;;;5048731;28;20569;-66
2022/08/01 12:12:10;;;;;;;0.90;0.90;;;29.80;99.90;;;;;;5056265;28;20200;-67
2022/08/01 12:14:37;;;;;;;1.00;1.00;;;29.70;99.90;;;;;;5050155;28;20196;-67
2022/08/01 12:17:04;;;;;;;0.85;0.85;;;29.60;99.90;;;;;;5058088;28;20207;-67
2022/08/01 12:19:31;;;;;;;0.90;0.90;;;29.50;99.90;;;;;;5055236;28;20239;-68
2022/08/01 12:22:13;;;;;;;1.17;0.88;;;29.20;99.90;;;;;;5049481;28;20226;-66
2022/08/01 12:24:43;;;;;;;0.80;0.80;;;29.10;99.90;;;;;;5049093;28;20219;-67
2022/08/01 12:27:12;;;;;;;0.90;0.90;;;29.00;99.90;;;;;;5048933;28;20249;-67
2022/08/01 12:29:40;;;;;;;0.90;0.90;;;29.00;99.90;;;;;;5050254;28;20202;-66
2022/08/01 12:32:24;;;;;;;1.08;1.08;;;29.10;99.90;;;;;;5049712;28;20249;-67
2022/08/01 12:34:51;;;;;;;0.80;0.80;;;29.40;99.90;;;;;;5048285;28;20629;-67
2022/08/01 12:37:19;;;;;;;1.45;0.90;;;29.50;99.90;;;;;;5046963;28;20228;-66
2022/08/01 12:39:48;;;;;;;0.82;0.82;;;29.50;99.90;;;;;;5048239;28;20661;-67
2022/08/01 12:42:15;;;;;;;1.10;1.00;;;29.40;99.90;;;;;;5043090;28;20234;-68
2022/08/01 12:44:44;;;;;;;0.80;0.80;;;29.40;99.90;;;;;;5048266;28;20283;-66
2022/08/01 12:47:12;;;;;;;1.00;1.00;;;29.60;99.90;;;;;;5050831;28;20216;-68
2022/08/01 12:49:40;;;;;;;1.20;1.10;;;29.60;99.90;;;;;;5052021;28;20210;-67
2022/08/01 12:52:08;;;;;;;2.22;1.05;;;29.60;99.90;;;;;;5050971;28;20204;-68
2022/08/01 12:55:09;;;;;;;0.82;0.82;;;29.80;99.90;;;;;;5048645;28;20208;-66
2022/08/01 12:57:36;;;;;;;0.75;0.75;;;29.90;99.90;;;;;;5046885;28;20704;-67
2022/08/01 13:00:12;;;;;;;1.00;1.00;;;29.80;99.90;;;;;;5051283;28;20199;-67